sensor_id;sensor_type;location;lat;lon;timestamp;P1;durP1;ratioP1;P2;durP2;ratioP2
37349;SDS011;23231;52.358;4.926;2023-07-24T00:04:29;12.05;;;5.10;;
37349;SDS011;23231;52.358;4.926;2023-07-24T00:09:31;10.90;;;4.80;;
37349;SDS011;23231;52.358;4.926;2023-07-24T00:14:32;10.77;;;4.93;;
37349;SDS011;23231;52.358;4.926;2023-07-24T00:19:32;8.77;;;4.68;;
37349;SDS011;23231;52.358;4.926;2023-07-24T00:24:33;11.90;;;5.82;;
37349;SDS011;23231;52.358;4.926;2023-07-24T00:29:33;12.55;;;6.22;;
37349;SDS011;23231;52.358;4.926;2023-07-24T00:34:33;10.23;;;5.95;;
37349;SDS011;23231;52.358;4.926;2023-07-24T00:39:34;11.93;;;5.78;;
37349;SDS011;23231;52.358;4.926;2023-07-24T00:44:34;9.93;;;5.70;;
37349;SDS011;23231;52.358;4.926;2023-07-24T00:49:35;9.77;;;5.95;;
37349;SDS011;23231;52.358;4.926;2023-07-24T00:54:35;9.98;;;5.25;;
37349;SDS011;23231;52.358;4.926;2023-07-24T00:59:36;9.20;;;6.18;;
37349;SDS011;23231;52.358;4.926;2023-07-24T01:04:37;9.90;;;5.93;;
37349;SDS011;23231;52.358;4.926;2023-07-24T01:09:37;9.13;;;5.38;;
37349;SDS011;23231;52.358;4.926;2023-07-24T01:19:54;9.87;;;5.97;;
37349;SDS011;23231;52.358;4.926;2023-07-24T01:30:20;8.70;;;5.18;;
37349;SDS011;23231;52.358;4.926;2023-07-24T01:35:21;11.23;;;6.00;;
37349;SDS011;23231;52.358;4.926;2023-07-24T01:40:21;10.93;;;5.57;;
37349;SDS011;23231;52.358;4.926;2023-07-24T01:45:22;12.77;;;6.13;;
37349;SDS011;23231;52.358;4.926;2023-07-24T01:50:23;11.18;;;5.70;;
37349;SDS011;23231;52.358;4.926;2023-07-24T01:55:23;10.02;;;5.65;;
37349;SDS011;23231;52.358;4.926;2023-07-24T02:00:24;9.25;;;5.55;;
37349;SDS011;23231;52.358;4.926;2023-07-24T02:05:25;10.48;;;5.97;;
37349;SDS011;23231;52.358;4.926;2023-07-24T02:10:25;10.20;;;5.78;;
37349;SDS011;23231;52.358;4.926;2023-07-24T02:15:26;11.35;;;5.95;;
37349;SDS011;23231;52.358;4.926;2023-07-24T02:20:26;11.05;;;6.55;;
37349;SDS011;23231;52.358;4.926;2023-07-24T02:25:27;10.48;;;6.47;;
37349;SDS011;23231;52.358;4.926;2023-07-24T02:30:27;9.48;;;6.07;;
37349;SDS011;23231;52.358;4.926;2023-07-24T02:35:27;10.85;;;6.88;;
37349;SDS011;23231;52.358;4.926;2023-07-24T02:40:28;10.23;;;6.75;;
37349;SDS011;23231;52.358;4.926;2023-07-24T02:45:28;9.98;;;6.45;;
37349;SDS011;23231;52.358;4.926;2023-07-24T02:50:29;11.35;;;6.50;;
37349;SDS011;23231;52.358;4.926;2023-07-24T02:55:29;12.48;;;6.68;;
37349;SDS011;23231;52.358;4.926;2023-07-24T03:00:31;11.18;;;6.70;;
37349;SDS011;23231;52.358;4.926;2023-07-24T03:05:33;11.45;;;7.10;;
37349;SDS011;23231;52.358;4.926;2023-07-24T03:10:34;14.15;;;6.70;;
37349;SDS011;23231;52.358;4.926;2023-07-24T03:15:34;10.52;;;6.28;;
37349;SDS011;23231;52.358;4.926;2023-07-24T03:20:35;11.77;;;6.25;;
37349;SDS011;23231;52.358;4.926;2023-07-24T03:25:35;12.65;;;6.63;;
37349;SDS011;23231;52.358;4.926;2023-07-24T03:30:35;13.27;;;6.70;;
37349;SDS011;23231;52.358;4.926;2023-07-24T03:35:36;14.45;;;7.40;;
37349;SDS011;23231;52.358;4.926;2023-07-24T03:40:36;11.90;;;6.25;;
37349;SDS011;23231;52.358;4.926;2023-07-24T03:45:36;13.93;;;6.25;;
37349;SDS011;23231;52.358;4.926;2023-07-24T03:50:37;11.82;;;6.05;;
37349;SDS011;23231;52.358;4.926;2023-07-24T03:55:38;11.90;;;6.45;;
37349;SDS011;23231;52.358;4.926;2023-07-24T04:00:38;12.85;;;6.20;;
37349;SDS011;23231;52.358;4.926;2023-07-24T04:05:38;10.20;;;6.32;;
37349;SDS011;23231;52.358;4.926;2023-07-24T04:10:39;13.98;;;6.68;;
37349;SDS011;23231;52.358;4.926;2023-07-24T04:15:39;11.02;;;6.05;;
37349;SDS011;23231;52.358;4.926;2023-07-24T04:20:40;10.43;;;6.32;;
37349;SDS011;23231;52.358;4.926;2023-07-24T04:25:40;17.00;;;6.47;;
37349;SDS011;23231;52.358;4.926;2023-07-24T04:30:40;12.43;;;5.72;;
37349;SDS011;23231;52.358;4.926;2023-07-24T04:35:41;11.82;;;5.95;;
37349;SDS011;23231;52.358;4.926;2023-07-24T04:40:43;13.73;;;6.07;;
37349;SDS011;23231;52.358;4.926;2023-07-24T04:45:45;32.13;;;6.03;;
37349;SDS011;23231;52.358;4.926;2023-07-24T04:50:45;11.68;;;5.63;;
37349;SDS011;23231;52.358;4.926;2023-07-24T04:55:46;15.23;;;5.43;;
37349;SDS011;23231;52.358;4.926;2023-07-24T05:00:46;13.45;;;4.85;;
37349;SDS011;23231;52.358;4.926;2023-07-24T05:05:56;12.35;;;5.30;;
37349;SDS011;23231;52.358;4.926;2023-07-24T05:10:56;12.70;;;5.13;;
37349;SDS011;23231;52.358;4.926;2023-07-24T05:15:58;14.82;;;5.50;;
37349;SDS011;23231;52.358;4.926;2023-07-24T05:20:59;13.63;;;5.53;;
37349;SDS011;23231;52.358;4.926;2023-07-24T05:26:02;14.48;;;5.32;;
37349;SDS011;23231;52.358;4.926;2023-07-24T05:31:03;14.18;;;5.18;;
37349;SDS011;23231;52.358;4.926;2023-07-24T05:36:04;13.30;;;5.25;;
37349;SDS011;23231;52.358;4.926;2023-07-24T05:41:05;15.07;;;5.35;;
37349;SDS011;23231;52.358;4.926;2023-07-24T05:46:05;17.15;;;5.70;;
37349;SDS011;23231;52.358;4.926;2023-07-24T05:51:06;13.55;;;5.55;;
37349;SDS011;23231;52.358;4.926;2023-07-24T05:56:06;12.65;;;5.90;;
37349;SDS011;23231;52.358;4.926;2023-07-24T06:01:07;16.90;;;5.60;;
37349;SDS011;23231;52.358;4.926;2023-07-24T06:06:10;13.05;;;5.43;;
37349;SDS011;23231;52.358;4.926;2023-07-24T06:11:11;11.48;;;5.35;;
37349;SDS011;23231;52.358;4.926;2023-07-24T06:16:11;13.73;;;5.18;;
37349;SDS011;23231;52.358;4.926;2023-07-24T06:21:13;11.95;;;5.80;;
37349;SDS011;23231;52.358;4.926;2023-07-24T06:26:14;16.83;;;6.22;;
37349;SDS011;23231;52.358;4.926;2023-07-24T06:31:14;15.48;;;5.57;;
37349;SDS011;23231;52.358;4.926;2023-07-24T06:36:16;13.73;;;5.57;;
37349;SDS011;23231;52.358;4.926;2023-07-24T06:41:16;12.30;;;5.65;;
37349;SDS011;23231;52.358;4.926;2023-07-24T06:46:17;14.60;;;5.47;;
37349;SDS011;23231;52.358;4.926;2023-07-24T06:51:18;15.90;;;6.13;;
37349;SDS011;23231;52.358;4.926;2023-07-24T06:56:20;13.32;;;5.65;;
37349;SDS011;23231;52.358;4.926;2023-07-24T07:01:21;18.27;;;6.28;;
37349;SDS011;23231;52.358;4.926;2023-07-24T07:06:22;15.80;;;5.88;;
37349;SDS011;23231;52.358;4.926;2023-07-24T07:11:22;20.85;;;6.13;;
37349;SDS011;23231;52.358;4.926;2023-07-24T07:16:23;16.92;;;5.88;;
37349;SDS011;23231;52.358;4.926;2023-07-24T07:21:23;18.58;;;6.25;;
37349;SDS011;23231;52.358;4.926;2023-07-24T07:26:24;16.13;;;5.30;;
37349;SDS011;23231;52.358;4.926;2023-07-24T07:31:25;12.13;;;5.63;;
37349;SDS011;23231;52.358;4.926;2023-07-24T07:36:25;11.20;;;5.25;;
37349;SDS011;23231;52.358;4.926;2023-07-24T07:41:26;13.45;;;5.93;;
37349;SDS011;23231;52.358;4.926;2023-07-24T07:46:26;12.60;;;5.75;;
37349;SDS011;23231;52.358;4.926;2023-07-24T07:51:26;17.05;;;6.22;;
37349;SDS011;23231;52.358;4.926;2023-07-24T07:56:28;13.85;;;5.60;;
37349;SDS011;23231;52.358;4.926;2023-07-24T08:01:28;15.75;;;5.57;;
37349;SDS011;23231;52.358;4.926;2023-07-24T08:06:30;13.55;;;5.82;;
37349;SDS011;23231;52.358;4.926;2023-07-24T08:11:30;13.90;;;6.30;;
37349;SDS011;23231;52.358;4.926;2023-07-24T08:16:32;12.93;;;5.93;;
37349;SDS011;23231;52.358;4.926;2023-07-24T08:21:32;10.75;;;5.57;;
37349;SDS011;23231;52.358;4.926;2023-07-24T08:26:33;11.32;;;5.03;;
37349;SDS011;23231;52.358;4.926;2023-07-24T08:31:33;9.95;;;5.28;;
37349;SDS011;23231;52.358;4.926;2023-07-24T08:36:34;9.63;;;5.50;;
37349;SDS011;23231;52.358;4.926;2023-07-24T08:41:36;9.15;;;5.32;;
37349;SDS011;23231;52.358;4.926;2023-07-24T08:46:37;12.90;;;5.75;;
37349;SDS011;23231;52.358;4.926;2023-07-24T08:51:45;9.90;;;4.93;;
37349;SDS011;23231;52.358;4.926;2023-07-24T08:56:49;10.43;;;5.13;;
37349;SDS011;23231;52.358;4.926;2023-07-24T09:01:50;9.80;;;4.82;;
37349;SDS011;23231;52.358;4.926;2023-07-24T09:06:52;13.55;;;5.00;;
37349;SDS011;23231;52.358;4.926;2023-07-24T09:11:53;10.18;;;4.75;;
37349;SDS011;23231;52.358;4.926;2023-07-24T09:17:08;11.65;;;4.95;;
37349;SDS011;23231;52.358;4.926;2023-07-24T09:22:13;10.85;;;4.45;;
37349;SDS011;23231;52.358;4.926;2023-07-24T09:27:15;11.48;;;5.57;;
37349;SDS011;23231;52.358;4.926;2023-07-24T09:32:22;8.88;;;4.85;;
37349;SDS011;23231;52.358;4.926;2023-07-24T09:42:29;10.13;;;5.07;;
37349;SDS011;23231;52.358;4.926;2023-07-24T09:47:38;12.05;;;4.60;;
37349;SDS011;23231;52.358;4.926;2023-07-24T09:52:41;10.90;;;4.60;;
37349;SDS011;23231;52.358;4.926;2023-07-24T09:57:41;9.38;;;4.38;;
37349;SDS011;23231;52.358;4.926;2023-07-24T10:02:49;9.13;;;4.60;;
37349;SDS011;23231;52.358;4.926;2023-07-24T10:07:50;8.73;;;4.88;;
37349;SDS011;23231;52.358;4.926;2023-07-24T10:12:51;8.75;;;4.70;;
37349;SDS011;23231;52.358;4.926;2023-07-24T10:18:00;6.97;;;3.92;;
37349;SDS011;23231;52.358;4.926;2023-07-24T10:23:02;7.18;;;4.10;;
37349;SDS011;23231;52.358;4.926;2023-07-24T10:28:07;6.53;;;3.85;;
37349;SDS011;23231;52.358;4.926;2023-07-24T10:33:11;7.15;;;4.05;;
37349;SDS011;23231;52.358;4.926;2023-07-24T10:38:18;8.02;;;3.85;;
37349;SDS011;23231;52.358;4.926;2023-07-24T10:43:20;7.60;;;4.03;;
37349;SDS011;23231;52.358;4.926;2023-07-24T10:48:21;8.13;;;3.83;;
37349;SDS011;23231;52.358;4.926;2023-07-24T10:53:24;7.00;;;4.20;;
37349;SDS011;23231;52.358;4.926;2023-07-24T10:58:26;7.22;;;3.97;;
37349;SDS011;23231;52.358;4.926;2023-07-24T11:03:27;8.60;;;4.15;;
37349;SDS011;23231;52.358;4.926;2023-07-24T11:08:29;6.68;;;3.38;;
37349;SDS011;23231;52.358;4.926;2023-07-24T11:13:31;7.07;;;4.28;;
37349;SDS011;23231;52.358;4.926;2023-07-24T11:18:32;5.75;;;3.83;;
37349;SDS011;23231;52.358;4.926;2023-07-24T11:23:32;7.53;;;4.18;;
37349;SDS011;23231;52.358;4.926;2023-07-24T11:28:38;6.32;;;4.03;;
37349;SDS011;23231;52.358;4.926;2023-07-24T11:33:40;5.82;;;3.50;;
37349;SDS011;23231;52.358;4.926;2023-07-24T11:38:41;5.97;;;4.00;;
37349;SDS011;23231;52.358;4.926;2023-07-24T11:43:49;5.43;;;3.72;;
37349;SDS011;23231;52.358;4.926;2023-07-24T11:48:50;7.22;;;4.10;;
37349;SDS011;23231;52.358;4.926;2023-07-24T11:54:03;6.18;;;3.58;;
37349;SDS011;23231;52.358;4.926;2023-07-24T11:59:14;6.97;;;3.70;;
37349;SDS011;23231;52.358;4.926;2023-07-24T12:04:15;7.85;;;4.03;;
37349;SDS011;23231;52.358;4.926;2023-07-24T12:09:16;6.10;;;3.42;;
37349;SDS011;23231;52.358;4.926;2023-07-24T12:14:17;4.43;;;2.63;;
37349;SDS011;23231;52.358;4.926;2023-07-24T12:19:17;3.90;;;2.38;;
37349;SDS011;23231;52.358;4.926;2023-07-24T12:24:17;5.35;;;2.33;;
37349;SDS011;23231;52.358;4.926;2023-07-24T12:29:18;6.57;;;2.20;;
37349;SDS011;23231;52.358;4.926;2023-07-24T12:34:18;2.95;;;1.80;;
37349;SDS011;23231;52.358;4.926;2023-07-24T12:39:19;4.90;;;1.90;;
37349;SDS011;23231;52.358;4.926;2023-07-24T12:44:19;3.83;;;1.65;;
37349;SDS011;23231;52.358;4.926;2023-07-24T12:49:19;4.65;;;2.05;;
37349;SDS011;23231;52.358;4.926;2023-07-24T12:54:20;6.15;;;1.40;;
37349;SDS011;23231;52.358;4.926;2023-07-24T12:59:22;5.25;;;1.40;;
37349;SDS011;23231;52.358;4.926;2023-07-24T13:04:23;5.22;;;2.30;;
37349;SDS011;23231;52.358;4.926;2023-07-24T13:09:23;5.63;;;2.55;;
37349;SDS011;23231;52.358;4.926;2023-07-24T13:14:25;5.68;;;2.35;;
37349;SDS011;23231;52.358;4.926;2023-07-24T13:19:25;8.10;;;2.50;;
37349;SDS011;23231;52.358;4.926;2023-07-24T13:24:26;7.15;;;2.35;;
37349;SDS011;23231;52.358;4.926;2023-07-24T13:29:26;11.15;;;2.80;;
37349;SDS011;23231;52.358;4.926;2023-07-24T13:34:26;6.35;;;2.30;;
37349;SDS011;23231;52.358;4.926;2023-07-24T13:39:27;7.00;;;1.80;;
37349;SDS011;23231;52.358;4.926;2023-07-24T13:44:28;6.70;;;2.10;;
37349;SDS011;23231;52.358;4.926;2023-07-24T13:49:29;6.35;;;1.63;;
37349;SDS011;23231;52.358;4.926;2023-07-24T13:54:29;4.38;;;1.45;;
37349;SDS011;23231;52.358;4.926;2023-07-24T13:59:30;10.00;;;2.10;;
37349;SDS011;23231;52.358;4.926;2023-07-24T14:04:31;4.25;;;1.60;;
37349;SDS011;23231;52.358;4.926;2023-07-24T14:09:31;5.72;;;1.70;;
37349;SDS011;23231;52.358;4.926;2023-07-24T14:14:35;6.32;;;1.58;;
37349;SDS011;23231;52.358;4.926;2023-07-24T14:19:43;4.18;;;1.65;;
37349;SDS011;23231;52.358;4.926;2023-07-24T14:24:43;6.80;;;1.75;;
37349;SDS011;23231;52.358;4.926;2023-07-24T14:29:43;5.30;;;1.55;;
37349;SDS011;23231;52.358;4.926;2023-07-24T14:34:45;5.65;;;1.80;;
37349;SDS011;23231;52.358;4.926;2023-07-24T14:44:50;5.20;;;1.20;;
37349;SDS011;23231;52.358;4.926;2023-07-24T14:49:50;6.90;;;1.10;;
37349;SDS011;23231;52.358;4.926;2023-07-24T14:54:50;4.55;;;1.00;;
37349;SDS011;23231;52.358;4.926;2023-07-24T14:59:51;2.58;;;0.88;;
37349;SDS011;23231;52.358;4.926;2023-07-24T15:04:51;4.65;;;0.93;;
37349;SDS011;23231;52.358;4.926;2023-07-24T15:09:52;4.78;;;1.52;;
37349;SDS011;23231;52.358;4.926;2023-07-24T15:14:52;4.82;;;1.20;;
37349;SDS011;23231;52.358;4.926;2023-07-24T15:19:53;7.80;;;1.58;;
37349;SDS011;23231;52.358;4.926;2023-07-24T15:24:53;3.83;;;1.40;;
37349;SDS011;23231;52.358;4.926;2023-07-24T15:29:54;5.10;;;1.27;;
37349;SDS011;23231;52.358;4.926;2023-07-24T15:34:54;4.50;;;1.30;;
37349;SDS011;23231;52.358;4.926;2023-07-24T15:39:55;6.10;;;1.40;;
37349;SDS011;23231;52.358;4.926;2023-07-24T15:44:57;4.07;;;1.65;;
37349;SDS011;23231;52.358;4.926;2023-07-24T15:49:57;5.75;;;1.80;;
37349;SDS011;23231;52.358;4.926;2023-07-24T15:54:58;7.07;;;1.60;;
37349;SDS011;23231;52.358;4.926;2023-07-24T15:59:59;6.60;;;1.90;;
37349;SDS011;23231;52.358;4.926;2023-07-24T16:05:00;8.43;;;1.90;;
37349;SDS011;23231;52.358;4.926;2023-07-24T16:10:00;5.18;;;1.48;;
37349;SDS011;23231;52.358;4.926;2023-07-24T16:15:01;5.30;;;2.05;;
37349;SDS011;23231;52.358;4.926;2023-07-24T16:20:01;7.93;;;1.85;;
37349;SDS011;23231;52.358;4.926;2023-07-24T16:25:03;3.78;;;1.40;;
37349;SDS011;23231;52.358;4.926;2023-07-24T16:30:03;3.45;;;1.25;;
37349;SDS011;23231;52.358;4.926;2023-07-24T16:35:04;4.10;;;1.25;;
37349;SDS011;23231;52.358;4.926;2023-07-24T16:40:05;3.22;;;1.23;;
37349;SDS011;23231;52.358;4.926;2023-07-24T16:45:06;3.25;;;1.33;;
37349;SDS011;23231;52.358;4.926;2023-07-24T16:50:07;2.58;;;1.17;;
37349;SDS011;23231;52.358;4.926;2023-07-24T16:55:08;3.45;;;1.50;;
37349;SDS011;23231;52.358;4.926;2023-07-24T17:00:09;5.65;;;1.75;;
37349;SDS011;23231;52.358;4.926;2023-07-24T17:05:10;7.72;;;1.65;;
37349;SDS011;23231;52.358;4.926;2023-07-24T17:10:11;8.07;;;1.92;;
37349;SDS011;23231;52.358;4.926;2023-07-24T17:15:11;7.25;;;2.00;;
37349;SDS011;23231;52.358;4.926;2023-07-24T17:20:13;9.13;;;2.10;;
37349;SDS011;23231;52.358;4.926;2023-07-24T17:25:13;8.63;;;2.00;;
37349;SDS011;23231;52.358;4.926;2023-07-24T17:30:14;7.20;;;2.00;;
37349;SDS011;23231;52.358;4.926;2023-07-24T17:35:14;6.07;;;2.30;;
37349;SDS011;23231;52.358;4.926;2023-07-24T17:40:15;6.07;;;2.03;;
37349;SDS011;23231;52.358;4.926;2023-07-24T17:45:15;7.80;;;2.10;;
37349;SDS011;23231;52.358;4.926;2023-07-24T17:50:16;6.70;;;1.88;;
37349;SDS011;23231;52.358;4.926;2023-07-24T17:55:16;7.28;;;2.33;;
37349;SDS011;23231;52.358;4.926;2023-07-24T18:00:20;6.22;;;1.80;;
37349;SDS011;23231;52.358;4.926;2023-07-24T18:05:22;6.75;;;2.00;;
37349;SDS011;23231;52.358;4.926;2023-07-24T18:10:22;7.72;;;2.38;;
37349;SDS011;23231;52.358;4.926;2023-07-24T18:15:22;7.20;;;2.50;;
37349;SDS011;23231;52.358;4.926;2023-07-24T18:20:24;4.75;;;1.60;;
37349;SDS011;23231;52.358;4.926;2023-07-24T18:25:24;5.75;;;1.77;;
37349;SDS011;23231;52.358;4.926;2023-07-24T18:30:25;7.55;;;1.80;;
37349;SDS011;23231;52.358;4.926;2023-07-24T18:35:28;6.50;;;1.75;;
37349;SDS011;23231;52.358;4.926;2023-07-24T18:40:29;8.38;;;2.10;;
37349;SDS011;23231;52.358;4.926;2023-07-24T18:45:30;6.43;;;2.05;;
37349;SDS011;23231;52.358;4.926;2023-07-24T18:50:30;8.68;;;2.20;;
37349;SDS011;23231;52.358;4.926;2023-07-24T18:55:31;5.75;;;2.15;;
37349;SDS011;23231;52.358;4.926;2023-07-24T19:00:31;8.57;;;2.00;;
37349;SDS011;23231;52.358;4.926;2023-07-24T19:05:31;7.43;;;2.08;;
37349;SDS011;23231;52.358;4.926;2023-07-24T19:10:33;9.32;;;2.53;;
37349;SDS011;23231;52.358;4.926;2023-07-24T19:15:33;6.28;;;2.03;;
37349;SDS011;23231;52.358;4.926;2023-07-24T19:20:34;8.30;;;2.33;;
37349;SDS011;23231;52.358;4.926;2023-07-24T19:25:34;8.52;;;2.30;;
37349;SDS011;23231;52.358;4.926;2023-07-24T19:30:34;7.78;;;2.90;;
37349;SDS011;23231;52.358;4.926;2023-07-24T19:35:35;10.43;;;2.40;;
37349;SDS011;23231;52.358;4.926;2023-07-24T19:40:35;7.90;;;2.22;;
37349;SDS011;23231;52.358;4.926;2023-07-24T19:45:37;7.07;;;2.25;;
37349;SDS011;23231;52.358;4.926;2023-07-24T19:50:45;9.23;;;2.33;;
37349;SDS011;23231;52.358;4.926;2023-07-24T19:55:47;5.90;;;2.10;;
37349;SDS011;23231;52.358;4.926;2023-07-24T20:00:52;5.60;;;2.30;;
37349;SDS011;23231;52.358;4.926;2023-07-24T20:05:55;7.15;;;2.15;;
37349;SDS011;23231;52.358;4.926;2023-07-24T20:10:59;9.48;;;2.55;;
37349;SDS011;23231;52.358;4.926;2023-07-24T20:16:01;8.18;;;2.20;;
37349;SDS011;23231;52.358;4.926;2023-07-24T20:21:02;9.65;;;2.42;;
37349;SDS011;23231;52.358;4.926;2023-07-24T20:26:02;10.77;;;2.67;;
37349;SDS011;23231;52.358;4.926;2023-07-24T20:31:03;8.93;;;2.60;;
37349;SDS011;23231;52.358;4.926;2023-07-24T20:36:07;7.85;;;3.17;;
37349;SDS011;23231;52.358;4.926;2023-07-24T20:41:07;8.48;;;2.53;;
37349;SDS011;23231;52.358;4.926;2023-07-24T20:46:12;6.85;;;2.75;;
37349;SDS011;23231;52.358;4.926;2023-07-24T20:51:20;14.73;;;2.88;;
37349;SDS011;23231;52.358;4.926;2023-07-24T20:56:22;10.32;;;3.10;;
37349;SDS011;23231;52.358;4.926;2023-07-24T21:01:22;8.30;;;3.03;;
37349;SDS011;23231;52.358;4.926;2023-07-24T21:06:23;8.63;;;2.55;;
37349;SDS011;23231;52.358;4.926;2023-07-24T21:11:23;10.93;;;2.75;;
37349;SDS011;23231;52.358;4.926;2023-07-24T21:16:24;9.55;;;2.70;;
37349;SDS011;23231;52.358;4.926;2023-07-24T21:21:24;10.63;;;2.65;;
37349;SDS011;23231;52.358;4.926;2023-07-24T21:26:25;10.18;;;3.00;;
37349;SDS011;23231;52.358;4.926;2023-07-24T21:31:25;8.68;;;2.65;;
37349;SDS011;23231;52.358;4.926;2023-07-24T21:36:25;5.07;;;2.70;;
37349;SDS011;23231;52.358;4.926;2023-07-24T21:41:26;7.85;;;2.65;;
37349;SDS011;23231;52.358;4.926;2023-07-24T21:46:27;11.07;;;3.10;;
37349;SDS011;23231;52.358;4.926;2023-07-24T21:51:28;12.10;;;3.28;;
37349;SDS011;23231;52.358;4.926;2023-07-24T21:56:28;8.88;;;2.97;;
37349;SDS011;23231;52.358;4.926;2023-07-24T22:01:29;8.75;;;2.72;;
37349;SDS011;23231;52.358;4.926;2023-07-24T22:06:29;8.48;;;2.70;;
37349;SDS011;23231;52.358;4.926;2023-07-24T22:11:29;7.55;;;2.80;;
37349;SDS011;23231;52.358;4.926;2023-07-24T22:16:32;8.35;;;3.08;;
37349;SDS011;23231;52.358;4.926;2023-07-24T22:21:33;7.25;;;2.60;;
37349;SDS011;23231;52.358;4.926;2023-07-24T22:26:33;8.48;;;2.97;;
37349;SDS011;23231;52.358;4.926;2023-07-24T22:31:33;10.23;;;2.97;;
37349;SDS011;23231;52.358;4.926;2023-07-24T22:36:34;11.57;;;3.20;;
37349;SDS011;23231;52.358;4.926;2023-07-24T22:41:34;9.63;;;2.75;;
37349;SDS011;23231;52.358;4.926;2023-07-24T22:46:35;10.80;;;2.90;;
37349;SDS011;23231;52.358;4.926;2023-07-24T22:51:35;8.70;;;2.85;;
37349;SDS011;23231;52.358;4.926;2023-07-24T22:56:35;8.05;;;2.22;;
37349;SDS011;23231;52.358;4.926;2023-07-24T23:01:37;9.48;;;2.78;;
37349;SDS011;23231;52.358;4.926;2023-07-24T23:06:37;10.65;;;2.20;;
37349;SDS011;23231;52.358;4.926;2023-07-24T23:11:38;9.15;;;2.30;;
37349;SDS011;23231;52.358;4.926;2023-07-24T23:16:38;8.10;;;2.28;;
37349;SDS011;23231;52.358;4.926;2023-07-24T23:21:39;8.02;;;2.30;;
37349;SDS011;23231;52.358;4.926;2023-07-24T23:26:39;9.20;;;2.25;;
37349;SDS011;23231;52.358;4.926;2023-07-24T23:31:39;7.90;;;2.70;;
37349;SDS011;23231;52.358;4.926;2023-07-24T23:36:40;8.02;;;1.95;;
37349;SDS011;23231;52.358;4.926;2023-07-24T23:41:40;11.68;;;2.35;;
37349;SDS011;23231;52.358;4.926;2023-07-24T23:46:41;7.90;;;2.58;;
37349;SDS011;23231;52.358;4.926;2023-07-24T23:51:42;10.05;;;2.80;;
37349;SDS011;23231;52.358;4.926;2023-07-24T23:56:43;11.02;;;2.40;;
